Time;durP1;ratioP1;P1;durP2;ratioP2;P2;SDS_P1;SDS_P2;PMS_P1;PMS_P2;Temp;Humidity;BMP_temperature;BMP_pressure;BME280_temperature;BME280_humidity;BME280_pressure;Samples;Min_cycle;Max_cycle;Signal;HPM_P1;HPM_P2
2022/05/05 00:00:22;;;;;;;8.20;3.50;;;;;;;7.02;48.17;99965.98;1708287;81;20944;-60
2022/05/05 00:02:50;;;;;;;8.38;3.58;;;;;;;7.03;48.24;99966.37;1719013;82;21148;-61
2022/05/05 00:05:17;;;;;;;6.67;3.33;;;;;;;7.04;48.24;99960.30;1697063;83;21464;-60
2022/05/05 00:07:44;;;;;;;5.20;3.58;;;;;;;7.06;48.30;99959.81;1724350;81;26964;-60
2022/05/05 00:15:42;;;;;;;7.58;3.72;;;;;;;7.08;48.33;99963.20;1683274;83;21234;-61
2022/05/05 00:18:10;;;;;;;8.60;3.90;;;;;;;7.07;48.33;99955.86;1679007;83;20994;-61
2022/05/05 00:20:36;;;;;;;7.55;3.37;;;;;;;7.06;48.34;99958.52;1719592;82;20968;-60
2022/05/05 00:23:03;;;;;;;15.13;3.60;;;;;;;7.04;48.35;99957.70;1718869;81;21978;-60
2022/05/05 00:25:33;;;;;;;7.90;4.17;;;;;;;7.04;48.40;99957.70;1721441;81;20980;-60
2022/05/05 00:28:00;;;;;;;7.60;4.35;;;;;;;7.01;48.38;99955.20;1733658;82;21876;-61
2022/05/05 00:30:27;;;;;;;8.08;3.95;;;;;;;7.00;48.39;99953.06;1722248;82;21656;-61
2022/05/05 00:32:55;;;;;;;6.42;3.45;;;;;;;7.02;48.44;99949.10;1725632;81;20965;-60
2022/05/05 00:35:23;;;;;;;7.87;4.03;;;;;;;7.02;48.45;99943.91;1719273;81;38017;-61
2022/05/05 00:37:50;;;;;;;5.37;3.60;;;;;;;7.04;48.43;99948.62;1723409;82;20946;-61
2022/05/05 00:40:16;;;;;;;10.53;4.03;;;;;;;7.08;48.43;99952.81;1720290;81;21068;-61
2022/05/05 00:42:43;;;;;;;8.53;4.07;;;;;;;7.12;48.46;99955.73;1693434;82;21030;-61
2022/05/05 00:45:10;;;;;;;8.17;3.47;;;;;;;7.15;48.53;99953.89;1670328;83;20930;-61
2022/05/05 00:47:37;;;;;;;9.10;4.72;;;;;;;7.18;48.51;99951.66;1714432;81;21955;-60
2022/05/05 00:50:06;;;;;;;7.60;3.70;;;;;;;7.23;48.51;99945.88;1706435;82;21530;-61
2022/05/05 00:52:32;;;;;;;7.08;3.27;;;;;;;7.28;48.49;99946.60;1702133;82;21613;-61
2022/05/05 00:55:01;;;;;;;6.60;3.47;;;;;;;7.31;48.53;99949.10;1682007;83;21084;-60
2022/05/05 00:57:28;;;;;;;7.60;4.53;;;;;;;7.36;48.55;99944.59;1692718;83;21021;-61
2022/05/05 00:59:56;;;;;;;8.80;3.50;;;;;;;7.43;48.52;99939.23;1696581;83;21036;-61
2022/05/05 01:02:23;;;;;;;6.20;4.33;;;;;;;7.49;48.51;99941.63;1693919;82;21025;-60
2022/05/05 01:04:49;;;;;;;13.53;4.95;;;;;;;7.54;48.52;99942.34;1730778;80;21046;-60
2022/05/05 01:07:16;;;;;;;6.85;4.17;;;;;;;7.57;48.50;99944.84;1715526;80;20986;-61
2022/05/05 01:09:43;;;;;;;7.05;4.03;;;;;;;7.60;48.46;99938.25;1701418;81;21440;-61
2022/05/05 01:12:10;;;;;;;6.72;3.67;;;;;;;7.65;48.48;99947.22;1705784;82;20993;-60
2022/05/05 01:14:37;;;;;;;10.43;3.60;;;;;;;7.69;48.38;99946.20;1715578;82;20927;-60
2022/05/05 01:17:06;;;;;;;7.42;3.08;;;;;;;7.74;48.42;99945.16;1711789;81;21313;-61
2022/05/05 01:19:35;;;;;;;7.20;3.10;;;;;;;7.79;48.40;99951.06;1726362;81;21602;-61
2022/05/05 01:22:03;;;;;;;7.50;3.27;;;;;;;7.81;48.39;99945.38;1729893;81;20938;-61
2022/05/05 01:30:00;;;;;;;7.33;3.52;;;;;;;7.92;48.39;99937.66;1714852;81;22149;-61
2022/05/05 01:32:32;;;;;;;7.72;3.12;;;;;;;7.95;48.36;99937.55;1720193;81;21525;-61
2022/05/05 01:34:59;;;;;;;6.70;3.20;;;;;;;7.98;48.36;99927.05;1688848;83;21001;-61
2022/05/05 01:37:27;;;;;;;6.03;3.05;;;;;;;8.02;48.34;99929.95;1682590;83;21591;-61
2022/05/05 01:39:54;;;;;;;5.33;2.52;;;;;;;8.05;48.32;99927.25;1689016;83;21032;-61
2022/05/05 01:42:21;;;;;;;4.33;2.87;;;;;;;8.09;48.36;99926.23;1699422;83;21261;-61
2022/05/05 01:44:48;;;;;;;5.27;2.50;;;;;;;8.11;48.30;99928.34;1696730;83;20911;-60
2022/05/05 01:47:14;;;;;;;8.75;3.20;;;;;;;8.14;48.30;99936.03;1688714;83;20937;-61
2022/05/05 01:49:44;;;;;;;7.20;2.40;;;;;;;8.17;48.26;99948.94;1693786;83;20925;-61
2022/05/05 01:52:10;;;;;;;9.33;2.83;;;;;;;8.19;48.28;99948.44;1700205;83;22026;-61
2022/05/05 01:54:38;;;;;;;3.67;2.47;;;;;;;8.19;48.27;99947.14;1724348;81;21114;-61
2022/05/05 01:57:06;;;;;;;4.22;2.45;;;;;;;8.20;48.27;99946.23;1724857;81;20980;-61
2022/05/05 01:59:34;;;;;;;5.35;2.77;;;;;;;8.22;48.21;99944.89;1727027;81;20931;-61
2022/05/05 02:02:00;;;;;;;8.30;2.70;;;;;;;8.24;48.26;99949.14;1703608;81;20976;-61
2022/05/05 02:04:27;;;;;;;6.20;2.45;;;;;;;8.23;48.31;99948.75;1677349;83;21077;-61
2022/05/05 02:06:54;;;;;;;7.03;2.70;;;;;;;8.21;48.28;99951.85;1717763;81;21271;-61
2022/05/05 02:09:20;;;;;;;13.72;3.30;;;;;;;8.20;48.31;99946.23;1703331;83;21626;-61
2022/05/05 02:11:47;;;;;;;6.90;2.70;;;;;;;8.21;48.32;99947.95;1688729;83;21498;-61
2022/05/05 02:14:14;;;;;;;3.60;2.58;;;;;;;8.19;48.28;99943.70;1688258;83;21049;-61
2022/05/05 02:16:40;;;;;;;5.60;2.52;;;;;;;8.19;48.29;99942.39;1696332;82;20963;-61
2022/05/05 02:19:07;;;;;;;7.67;3.43;;;;;;;8.19;48.33;99939.34;1709843;82;21049;-61
2022/05/05 02:21:34;;;;;;;4.53;2.30;;;;;;;8.19;48.32;99930.69;1684942;83;21170;-60
2022/05/05 02:24:00;;;;;;;5.50;3.00;;;;;;;8.18;48.31;99929.84;1686586;82;21121;-61
2022/05/05 02:26:27;;;;;;;8.40;3.67;;;;;;;8.19;48.33;99939.34;1740818;80;21018;-61
2022/05/05 02:28:54;;;;;;;3.97;2.40;;;;;;;8.18;48.37;99936.80;1732134;80;20994;-61
2022/05/05 02:31:21;;;;;;;4.92;2.83;;;;;;;8.17;48.35;99933.33;1720544;82;21349;-61
2022/05/05 02:33:48;;;;;;;5.40;2.80;;;;;;;8.17;48.42;99932.48;1719588;81;21031;-61
2022/05/05 02:38:59;;;;;;;6.47;2.98;;;;;;;8.18;48.45;99929.84;1690215;82;20949;-62
2022/05/05 02:41:26;;;;;;;6.72;3.08;;;;;;;8.19;48.48;99935.44;1709325;82;21609;-61
2022/05/05 02:43:52;;;;;;;7.42;2.60;;;;;;;8.20;48.50;99925.42;1710031;82;21080;-60
2022/05/05 02:46:19;;;;;;;8.63;2.80;;;;;;;8.20;48.54;99924.12;1711520;82;21508;-61
2022/05/05 02:48:46;;;;;;;7.20;2.95;;;;;;;8.23;48.57;99922.74;1699761;82;21009;-61
2022/05/05 02:51:12;;;;;;;5.07;3.27;;;;;;;8.25;48.58;99928.72;1712247;82;20917;-61
2022/05/05 02:56:24;;;;;;;15.13;3.15;;;;;;;8.28;48.66;99924.70;1689187;82;21114;-61
2022/05/05 02:58:53;;;;;;;5.50;2.97;;;;;;;8.29;48.66;99919.08;1702149;82;21374;-60
2022/05/05 03:01:20;;;;;;;4.78;3.02;;;;;;;8.17;48.49;99906.02;1707161;82;20930;-61
2022/05/05 03:03:46;;;;;;;15.00;3.37;;;;;;;8.28;48.75;99914.76;1728218;82;21022;-61
2022/05/05 03:06:13;;;;;;;9.60;3.20;;;;;;;8.28;48.81;99923.41;1736888;82;21475;-61
2022/05/05 03:08:40;;;;;;;4.53;2.70;;;;;;;8.28;48.79;99919.50;1714987;82;21883;-60
2022/05/05 03:11:07;;;;;;;5.28;2.72;;;;;;;8.28;48.87;99915.59;1699213;83;27371;-61
2022/05/05 03:13:34;;;;;;;7.90;2.85;;;;;;;8.28;48.93;99913.00;1739851;81;20900;-61
2022/05/05 03:16:00;;;;;;;10.43;3.03;;;;;;;8.28;48.93;99910.40;1718571;81;20998;-61
2022/05/05 03:18:28;;;;;;;5.60;3.00;;;;;;;8.29;48.95;99907.38;1748494;81;20995;-61
2022/05/05 03:20:55;;;;;;;6.92;2.80;;;;;;;8.32;49.01;99907.69;1726100;81;21188;-61
2022/05/05 03:23:22;;;;;;;7.62;3.08;;;;;;;8.34;49.03;99907.19;1725663;81;21551;-61
2022/05/05 03:25:49;;;;;;;5.70;3.33;;;;;;;8.35;49.06;99902.41;1685768;83;20897;-61
2022/05/05 03:28:17;;;;;;;7.50;2.87;;;;;;;8.35;49.07;99901.95;1678991;83;20954;-61
2022/05/05 03:30:44;;;;;;;6.00;2.80;;;;;;;8.35;49.14;99895.44;1685348;83;21093;-60
2022/05/05 03:33:10;;;;;;;6.37;3.70;;;;;;;8.36;49.17;99896.28;1694635;83;21128;-61
2022/05/05 03:35:37;;;;;;;6.43;3.57;;;;;;;8.36;49.17;99901.48;1697469;83;20923;-61
2022/05/05 03:38:03;;;;;;;7.30;3.70;;;;;;;8.37;49.22;99901.41;1725017;81;21087;-61
2022/05/05 03:40:30;;;;;;;8.37;3.80;;;;;;;8.39;49.28;99901.41;1730001;81;21027;-62
2022/05/05 03:43:00;;;;;;;6.70;3.23;;;;;;;8.39;49.33;99897.51;1728162;82;21119;-62
2022/05/05 03:45:27;;;;;;;7.72;2.65;;;;;;;8.40;49.37;99901.80;1712885;82;21088;-60
2022/05/05 03:47:53;;;;;;;7.07;2.83;;;;;;;8.40;49.41;99895.30;1727117;81;20941;-61
2022/05/05 03:50:20;;;;;;;5.93;2.63;;;;;;;8.41;49.48;99897.01;1727989;82;20877;-61
2022/05/05 03:52:47;;;;;;;13.90;3.40;;;;;;;8.43;49.53;99897.78;1717543;81;21008;-60
2022/05/05 03:55:13;;;;;;;8.53;3.62;;;;;;;8.44;49.63;99891.70;1724675;82;21670;-61
2022/05/05 03:57:40;;;;;;;7.47;3.27;;;;;;;8.46;49.68;99895.09;1723704;81;21073;-61
2022/05/05 04:00:08;;;;;;;5.30;2.60;;;;;;;8.47;49.69;99891.58;1704015;83;21081;-61
2022/05/05 04:02:35;;;;;;;6.22;3.10;;;;;;;8.49;49.78;99883.27;1722120;81;20987;-61
2022/05/05 04:05:01;;;;;;;7.60;3.13;;;;;;;8.51;49.77;99887.95;1693746;83;21432;-61
2022/05/05 04:07:28;;;;;;;9.87;3.60;;;;;;;8.53;49.88;99887.45;1693540;83;21051;-60
2022/05/05 04:09:55;;;;;;;19.07;4.63;;;;;;;8.55;49.89;99893.45;1686141;83;21629;-60
2022/05/05 04:12:22;;;;;;;11.28;3.52;;;;;;;8.59;49.96;99893.73;1678207;83;21060;-61
2022/05/05 04:14:48;;;;;;;6.63;2.90;;;;;;;8.64;49.99;99890.52;1693191;83;20990;-61
2022/05/05 04:17:16;;;;;;;5.85;3.40;;;;;;;8.67;50.01;99893.00;1743628;81;20927;-60
2022/05/05 04:19:43;;;;;;;;;;;;;;;8.71;50.09;99893.30;1736616;81;20921;-60
2022/05/05 04:22:09;;;;;;;4.45;3.05;;;;;;;8.74;50.18;99906.20;1702946;82;21003;-61
2022/05/05 04:24:36;;;;;;;6.90;3.37;;;;;;;8.78;50.20;99895.67;1723832;81;20878;-61
2022/05/05 04:27:05;;;;;;;8.40;3.42;;;;;;;8.81;50.22;99900.77;1723391;81;20941;-60
2022/05/05 04:29:32;;;;;;;6.25;2.90;;;;;;;8.86;50.25;99907.95;1720537;82;20992;-61
2022/05/05 04:31:58;;;;;;;10.85;2.83;;;;;;;8.92;50.34;99914.23;1728440;81;20933;-60
2022/05/05 04:34:26;;;;;;;11.97;3.27;;;;;;;8.99;50.32;99912.23;1722670;81;21305;-61
2022/05/05 04:36:53;;;;;;;5.83;3.20;;;;;;;9.04;50.40;99916.36;1729410;81;21040;-61
2022/05/05 04:39:19;;;;;;;5.42;3.22;;;;;;;9.09;50.44;99914.44;1681477;83;21004;-61
2022/05/05 04:41:46;;;;;;;4.17;2.85;;;;;;;9.14;50.48;99919.02;1678188;83;20982;-62
2022/05/05 04:44:13;;;;;;;9.07;3.03;;;;;;;9.21;50.53;99916.17;1682067;83;21001;-62
2022/05/05 04:46:39;;;;;;;5.47;2.83;;;;;;;9.26;50.56;99915.55;1682226;83;21757;-61
2022/05/05 04:49:08;;;;;;;7.40;3.27;;;;;;;9.29;50.60;99915.43;1688916;83;21108;-62
2022/05/05 04:51:34;;;;;;;19.60;3.62;;;;;;;9.33;50.62;99914.42;1682775;83;20949;-62
2022/05/05 04:54:01;;;;;;;9.88;3.30;;;;;;;9.35;50.65;99909.97;1695611;83;20879;-60
2022/05/05 04:56:28;;;;;;;9.03;3.55;;;;;;;9.39;50.73;99908.95;1701611;83;21501;-61
2022/05/05 04:58:55;;;;;;;5.17;2.83;;;;;;;9.45;50.79;99903.50;1686244;83;21947;-61
2022/05/05 05:01:22;;;;;;;5.27;3.00;;;;;;;9.52;50.80;99906.27;1698750;83;20911;-60
2022/05/05 05:03:53;;;;;;;5.78;2.72;;;;;;;9.61;50.93;99908.50;1674332;83;21036;-61
2022/05/05 05:06:20;;;;;;;5.67;2.72;;;;;;;9.71;50.99;99906.81;1727219;80;20932;-61
2022/05/05 05:08:47;;;;;;;10.98;5.87;;;;;;;9.79;50.98;99895.61;1715859;81;20989;-61
2022/05/05 05:11:14;;;;;;;17.05;8.55;;;;;;;9.85;51.04;99896.66;1725377;81;21176;-60
2022/05/05 05:13:40;;;;;;;17.00;4.55;;;;;;;9.90;51.03;99897.33;1724104;81;20914;-60
2022/05/05 05:16:09;;;;;;;9.03;3.50;;;;;;;9.91;51.06;99895.09;1733797;81;20987;-61
2022/05/05 05:18:37;;;;;;;15.60;3.87;;;;;;;9.92;51.06;99896.81;1664523;82;21551;-61
2022/05/05 05:21:04;;;;;;;4.45;2.60;;;;;;;9.86;51.09;99894.00;1712083;81;20931;-60
2022/05/05 05:23:30;;;;;;;14.20;3.40;;;;;;;9.90;51.16;99917.34;1722906;81;21132;-61
2022/05/05 05:25:57;;;;;;;10.60;3.40;;;;;;;9.90;51.16;99917.34;1718426;82;20944;-61
2022/05/05 05:28:25;;;;;;;6.70;3.30;;;;;;;9.94;51.26;99920.20;1725706;81;21628;-61
2022/05/05 05:30:51;;;;;;;8.95;3.15;;;;;;;10.04;51.43;99923.67;1723646;81;20973;-62
2022/05/05 05:33:18;;;;;;;7.60;3.37;;;;;;;10.04;51.43;99923.67;1725748;81;21012;-62
2022/05/05 05:35:45;;;;;;;6.50;2.77;;;;;;;10.14;51.43;99918.94;1725217;81;21880;-61
2022/05/05 05:38:13;;;;;;;5.78;3.10;;;;;;;10.28;51.47;99911.86;1722836;81;20938;-61
2022/05/05 05:40:40;;;;;;;4.62;2.92;;;;;;;10.40;51.45;99917.84;1683637;83;20985;-61
2022/05/05 05:43:07;;;;;;;9.90;3.35;;;;;;;10.50;51.53;99916.54;1720614;82;21036;-61
2022/05/05 05:45:34;;;;;;;6.37;3.53;;;;;;;10.65;51.65;99920.23;1711851;83;20999;-61
2022/05/05 05:48:01;;;;;;;6.55;3.70;;;;;;;10.79;51.61;99922.22;1714882;82;22032;-61
2022/05/05 05:50:30;;;;;;;10.93;4.75;;;;;;;10.93;51.69;99919.83;1700922;82;20989;-61
2022/05/05 05:52:58;;;;;;;15.68;6.37;;;;;;;11.07;51.64;99920.97;1699986;82;21501;-61
2022/05/05 05:55:25;;;;;;;15.48;4.87;;;;;;;11.12;51.61;99922.92;1693482;83;21518;-61
2022/05/05 05:57:52;;;;;;;12.33;4.28;;;;;;;11.15;51.51;99921.47;1711699;82;21002;-60
2022/05/05 06:00:22;;;;;;;10.15;4.15;;;;;;;11.13;51.57;99910.23;1704926;82;21122;-65
2022/05/05 06:05:33;;;;;;;22.82;4.20;;;;;;;11.21;51.55;99919.88;1712269;82;21075;-62
2022/05/05 06:08:02;;;;;;;9.65;3.83;;;;;;;11.30;51.65;99918.13;1702304;83;20954;-62
2022/05/05 06:10:29;;;;;;;14.25;4.00;;;;;;;11.41;51.58;99922.38;1687241;82;20985;-61
2022/05/05 06:12:56;;;;;;;;;;;;;;;11.52;51.68;99918.42;1705300;82;21103;-61
2022/05/05 06:15:23;;;;;;;8.40;3.50;;;;;;;11.62;51.68;99926.19;1704229;82;20119;-62
2022/05/05 06:17:50;;;;;;;;;;;;;;;11.72;51.61;99922.22;1702232;82;21030;-62
2022/05/05 06:20:18;;;;;;;10.18;4.08;;;;;;;11.80;51.44;99910.92;1698736;83;20100;-62
2022/05/05 06:22:46;;;;;;;8.63;3.30;;;;;;;11.90;51.61;99917.03;1700735;82;21044;-61
2022/05/05 06:25:13;;;;;;;11.48;4.47;;;;;;;12.12;51.58;99916.81;1685297;82;21077;-62
2022/05/05 06:27:40;;;;;;;5.92;4.33;;;;;;;12.27;51.46;99915.58;1683026;83;21039;-62
2022/05/05 06:30:10;;;;;;;13.70;4.78;;;;;;;12.37;51.43;99920.33;1694172;82;20961;-62
2022/05/05 06:32:37;;;;;;;7.12;4.22;;;;;;;12.42;51.32;99923.56;1689512;82;21413;-62
2022/05/05 06:35:04;;;;;;;26.00;6.00;;;;;;;12.43;51.35;99918.70;1692817;83;20918;-61
2022/05/05 06:37:31;;;;;;;14.80;6.78;;;;;;;12.48;51.33;99927.17;1695738;83;22075;-61
2022/05/05 06:39:58;;;;;;;12.30;6.37;;;;;;;12.56;51.33;99932.02;1725403;82;21017;-61
2022/05/05 06:42:25;;;;;;;9.18;5.95;;;;;;;12.66;51.44;99935.83;1724492;82;20949;-61
2022/05/05 06:44:52;;;;;;;9.55;5.72;;;;;;;12.81;51.42;99936.82;1720556;82;20945;-61
2022/05/05 06:47:19;;;;;;;11.88;4.60;;;;;;;13.04;51.30;99936.42;1725943;81;20966;-61
2022/05/05 06:49:45;;;;;;;9.58;4.15;;;;;;;13.34;51.40;99938.34;1711222;82;21708;-64
2022/05/05 06:52:12;;;;;;;9.90;4.95;;;;;;;13.71;51.14;99938.91;1692451;82;21040;-61
2022/05/05 06:54:39;;;;;;;15.58;6.45;;;;;;;13.92;51.08;99937.69;1696441;82;21025;-61
2022/05/05 06:57:06;;;;;;;9.48;4.58;;;;;;;14.08;50.72;99933.69;1698614;82;21541;-62
2022/05/05 06:59:32;;;;;;;11.48;4.72;;;;;;;14.21;51.13;99937.77;1698987;82;21067;-62
2022/05/05 07:02:02;;;;;;;10.13;5.17;;;;;;;14.28;50.71;99934.70;1693936;82;21088;-61
2022/05/05 07:07:17;;;;;;;21.03;6.37;;;;;;;14.30;50.71;99937.22;1682641;82;20982;-61
2022/05/05 07:12:32;;;;;;;11.80;4.78;;;;;;;14.07;50.50;99930.22;1702795;82;20974;-61
2022/05/05 07:14:59;;;;;;;13.83;5.15;;;;;;;13.89;50.44;99927.34;1703809;82;21840;-61
2022/05/05 07:17:26;;;;;;;8.78;3.95;;;;;;;13.80;50.35;99939.21;1683461;82;20997;-62
2022/05/05 07:19:56;;;;;;;7.90;5.10;;;;;;;13.79;50.49;99942.78;1706126;82;20931;-61
2022/05/05 07:22:23;;;;;;;8.10;4.80;;;;;;;13.88;50.61;99945.34;1684308;82;20997;-62
2022/05/05 07:24:50;;;;;;;14.78;5.20;;;;;;;14.05;50.65;99938.65;1687094;82;21086;-61
2022/05/05 07:27:17;;;;;;;10.20;4.70;;;;;;;14.23;50.54;99943.78;1700656;82;21962;-62
2022/05/05 07:29:46;;;;;;;7.12;4.42;;;;;;;14.43;50.48;99947.85;1689149;82;20926;-62
2022/05/05 07:32:12;;;;;;;7.75;5.33;;;;;;;14.60;50.50;99946.88;1691076;83;21501;-62
2022/05/05 07:34:40;;;;;;;15.05;6.10;;;;;;;14.78;50.46;99945.73;1684371;82;20933;-62
2022/05/05 07:37:07;;;;;;;10.15;6.33;;;;;;;14.94;50.34;99946.49;1647451;84;20910;-62
2022/05/05 07:39:33;;;;;;;26.48;8.75;;;;;;;15.05;50.21;99944.99;1702215;82;21135;-62
2022/05/05 07:42:00;;;;;;;12.65;7.03;;;;;;;15.20;50.18;99944.02;1732002;82;20941;-62
2022/05/05 07:44:27;;;;;;;16.15;6.25;;;;;;;15.33;50.17;99942.31;1726644;81;20870;-62
2022/05/05 07:46:55;;;;;;;22.32;5.87;;;;;;;15.43;50.17;99938.16;1718795;82;20992;-62
2022/05/05 07:49:21;;;;;;;9.70;5.03;;;;;;;15.45;49.97;99936.26;1708468;81;21546;-62
2022/05/05 07:51:51;;;;;;;14.50;5.30;;;;;;;15.45;49.98;99932.78;1722451;82;21748;-61
2022/05/05 07:57:12;;;;;;;13.93;4.78;;;;;;;15.47;49.95;99932.70;1736562;81;20998;-62
2022/05/05 07:59:40;;;;;;;9.93;4.80;;;;;;;15.44;49.68;99934.58;1703084;82;21477;-62
2022/05/05 08:02:13;;;;;;;13.08;4.60;;;;;;;15.45;49.68;99932.78;1716966;81;20962;-62
2022/05/05 08:04:38;;;;;;;9.53;4.97;;;;;;;15.49;49.80;99936.05;1691405;83;21981;-62
2022/05/05 08:07:05;;;;;;;10.48;5.22;;;;;;;15.66;49.98;99934.52;1685871;83;20933;-62
2022/05/05 08:09:32;;;;;;;;;;;;;;;15.94;49.92;99940.66;1688482;83;20995;-61
2022/05/05 08:12:01;;;;;;;9.48;4.67;;;;;;;16.21;49.76;99934.00;1689960;83;20574;-61
2022/05/05 08:14:28;;;;;;;7.85;4.65;;;;;;;16.41;49.67;99939.23;1696670;83;21491;-62
2022/05/05 08:16:56;;;;;;;10.00;4.85;;;;;;;16.60;49.90;99946.25;1691827;83;21075;-61
2022/05/05 08:19:23;;;;;;;27.20;6.42;;;;;;;16.78;49.80;99950.30;1689421;82;21035;-62
2022/05/05 08:21:50;;;;;;;12.25;6.30;;;;;;;16.84;49.54;99952.15;1712204;82;20973;-62
2022/05/05 08:29:48;;;;;;;40.30;13.22;;;;;;;16.52;49.40;99951.20;1707186;82;21158;-62
2022/05/05 08:32:14;;;;;;;;;;;;;;;16.45;49.26;99956.54;1692424;83;21483;-62
2022/05/05 08:34:41;;;;;;;24.40;6.12;;;;;;;16.38;49.28;99956.57;1713550;82;20438;-61
2022/05/05 08:37:10;;;;;;;13.68;5.30;;;;;;;16.40;49.38;99957.32;1713087;81;20962;-62
2022/05/05 08:39:36;;;;;;;8.20;6.28;;;;;;;16.45;49.36;99960.49;1712117;82;21079;-62
2022/05/05 08:42:07;;;;;;;11.70;5.97;;;;;;;16.64;49.42;99963.56;1713019;82;21099;-65
2022/05/05 08:44:34;;;;;;;7.97;5.55;;;;;;;16.99;49.44;99964.25;1715689;81;21071;-62
2022/05/05 08:47:02;;;;;;;30.97;7.12;;;;;;;17.42;49.77;99962.52;1720835;81;20980;-64
2022/05/05 08:49:30;;;;;;;9.75;4.83;;;;;;;18.25;50.02;99953.81;1730293;81;20962;-62
2022/05/05 08:52:01;;;;;;;19.50;11.50;;;;;;;18.92;49.56;99961.88;1714285;82;21480;-64
2022/05/05 08:54:32;;;;;;;11.55;5.17;;;;;;;19.24;49.10;99959.84;1720314;81;21448;-64
2022/05/05 08:56:59;;;;;;;12.75;6.45;;;;;;;19.24;48.59;99958.52;1719772;82;21551;-61
2022/05/05 08:59:25;;;;;;;55.90;8.38;;;;;;;19.03;48.66;99966.34;1725535;82;20953;-63
2022/05/05 09:01:52;;;;;;;13.45;4.60;;;;;;;18.84;48.22;99966.93;1727449;81;20952;-62
2022/05/05 09:04:20;;;;;;;7.53;4.08;;;;;;;18.61;48.43;99973.13;1720549;82;27045;-62
2022/05/05 09:06:52;;;;;;;11.53;8.88;;;;;;;18.35;48.21;99970.67;1722165;81;21048;-61
2022/05/05 09:09:29;;;;;;;10.43;4.87;;;;;;;17.99;48.02;99972.47;1726296;81;20876;-62
2022/05/05 09:12:14;;;;;;;;;;;;;;;17.73;48.08;99976.13;1727059;81;20941;-60
2022/05/05 09:14:46;;;;;;;49.10;8.67;;;;;;;17.39;47.86;99981.21;1720728;82;20118;-62
2022/05/05 09:17:20;;;;;;;13.30;5.08;;;;;;;17.14;48.07;99988.25;1719068;82;21017;-62
2022/05/05 09:19:52;;;;;;;14.33;6.20;;;;;;;16.98;48.00;99984.52;1719170;82;21351;-62
2022/05/05 09:22:25;;;;;;;8.60;4.35;;;;;;;16.87;47.97;99984.90;1725721;81;20891;-61
2022/05/05 09:24:56;;;;;;;19.70;13.15;;;;;;;16.76;48.01;99990.42;1714858;81;20980;-61
2022/05/05 09:27:38;;;;;;;37.45;13.30;;;;;;;16.60;47.89;99990.23;1727705;81;20998;-61
2022/05/05 09:30:14;;;;;;;31.90;19.15;;;;;;;16.40;47.87;99992.41;1720709;81;20985;-61
2022/05/05 09:32:45;;;;;;;40.45;18.90;;;;;;;16.24;47.94;100000.48;1714505;81;21113;-62
2022/05/05 09:35:16;;;;;;;25.85;11.95;;;;;;;16.08;47.99;100007.73;1687940;82;21463;-62
2022/05/05 09:37:49;;;;;;;16.02;7.25;;;;;;;15.86;47.93;100009.13;1726799;81;21476;-61
2022/05/05 09:40:21;;;;;;;13.30;7.37;;;;;;;15.66;48.07;100012.17;1721400;81;20970;-62
2022/05/05 09:42:52;;;;;;;14.40;7.35;;;;;;;15.44;48.14;100021.41;1705650;81;20894;-62
2022/05/05 09:45:27;;;;;;;18.32;9.75;;;;;;;15.30;48.19;100026.69;1698643;82;21114;-61
2022/05/05 09:47:57;;;;;;;19.77;13.13;;;;;;;15.03;48.25;100031.02;1672323;83;20962;-63
2022/05/05 09:50:30;;;;;;;38.60;26.97;;;;;;;14.72;48.58;100035.48;1687264;82;21014;-62
2022/05/05 09:58:39;;;;;;;14.15;9.73;;;;;;;14.01;49.27;100043.95;1693477;83;21083;-62
2022/05/05 10:01:13;;;;;;;26.12;19.73;;;;;;;13.81;49.64;100047.69;1718196;82;21076;-62
2022/05/05 10:04:02;;;;;;;17.50;10.25;;;;;;;13.74;50.14;100043.70;1709608;81;20954;-62
2022/05/05 10:06:44;;;;;;;12.05;8.15;;;;;;;13.66;50.53;100044.95;1725198;81;21830;-63
2022/05/05 10:09:13;;;;;;;8.85;6.08;;;;;;;13.55;50.92;100046.48;1703301;82;20994;-62
2022/05/05 10:11:40;;;;;;;9.45;7.05;;;;;;;13.40;51.22;100045.53;1682823;82;21248;-63
2022/05/05 10:14:21;;;;;;;12.20;6.72;;;;;;;13.33;51.59;100052.02;1693929;82;20975;-63
2022/05/05 10:16:50;;;;;;;8.70;5.42;;;;;;;13.34;52.15;100060.30;1685080;82;21147;-62
2022/05/05 10:19:17;;;;;;;9.15;5.62;;;;;;;13.26;52.17;100062.47;1695731;82;20997;-62
2022/05/05 10:22:01;;;;;;;17.00;6.58;;;;;;;13.25;52.61;100059.42;1702641;82;21032;-62
2022/05/05 10:24:35;;;;;;;10.70;6.22;;;;;;;13.23;52.75;100061.30;1695882;82;21373;-62
2022/05/05 10:27:04;;;;;;;11.43;7.53;;;;;;;13.15;53.16;100059.07;1703229;82;20951;-63
2022/05/05 10:29:42;;;;;;;9.60;7.15;;;;;;;13.10;53.35;100056.67;1704181;82;20883;-62
2022/05/05 10:32:21;;;;;;;;;;;;;;;13.06;53.73;100053.84;1700397;82;21003;-62
2022/05/05 10:35:15;;;;;;;7.42;5.58;;;;;;;13.07;54.50;100052.06;1682995;83;20142;-62
2022/05/05 10:37:43;;;;;;;7.95;5.85;;;;;;;13.04;54.39;100055.69;1689473;82;21868;-62
2022/05/05 10:40:11;;;;;;;9.73;6.05;;;;;;;13.07;54.72;100062.08;1703709;82;21605;-62
2022/05/05 10:42:46;;;;;;;8.65;6.00;;;;;;;13.06;54.89;100057.78;1689229;82;20972;-62
2022/05/05 10:45:32;;;;;;;7.87;6.15;;;;;;;13.07;55.24;100056.84;1695012;82;20923;-62
2022/05/05 10:48:08;;;;;;;8.80;6.17;;;;;;;13.07;55.54;100056.84;1701591;82;20942;-63
2022/05/05 10:50:56;;;;;;;8.38;6.10;;;;;;;13.05;55.89;100045.61;1688419;82;21109;-62
2022/05/05 10:53:34;;;;;;;9.35;5.58;;;;;;;13.02;56.04;100053.61;1686868;82;20906;-63
2022/05/05 10:56:21;;;;;;;9.40;5.62;;;;;;;12.97;56.11;100043.85;1701804;82;20999;-61
2022/05/05 10:59:07;;;;;;;7.80;5.58;;;;;;;12.99;56.19;100036.73;1681507;82;21601;-61
2022/05/05 11:01:56;;;;;;;9.65;6.70;;;;;;;13.05;56.41;100039.06;1697410;82;20972;-63
2022/05/05 11:04:29;;;;;;;7.25;6.37;;;;;;;12.84;56.44;100034.92;1700920;83;21078;-63
2022/05/05 11:07:27;;;;;;;7.53;6.15;;;;;;;12.67;57.04;100045.80;1694394;83;20934;-62
2022/05/05 11:09:53;;;;;;;8.18;5.90;;;;;;;12.69;57.31;100030.86;1694809;82;20987;-62
2022/05/05 11:12:24;;;;;;;11.05;5.83;;;;;;;12.92;57.50;100031.44;1681143;82;20970;-62
2022/05/05 11:23:45;;;;;;;9.13;5.37;;;;;;;13.00;58.11;100039.75;1679490;83;21055;-62
2022/05/05 11:26:22;;;;;;;8.73;6.15;;;;;;;13.15;58.50;100041.55;1680172;82;20942;-63
2022/05/05 11:28:50;;;;;;;7.15;6.00;;;;;;;13.47;58.78;100032.48;1724497;81;21474;-63
2022/05/05 11:31:21;;;;;;;10.63;6.55;;;;;;;13.69;58.53;100027.35;1684754;83;21024;-62
2022/05/05 11:33:55;;;;;;;11.30;6.97;;;;;;;13.76;58.32;100035.28;1688731;83;21049;-63
2022/05/05 11:36:33;;;;;;;8.15;7.17;;;;;;;13.84;59.48;100029.14;1706913;81;21031;-63
2022/05/05 11:39:02;;;;;;;8.58;7.47;;;;;;;13.76;59.08;100033.97;1677782;82;20934;-63
2022/05/05 11:41:30;;;;;;;8.08;6.80;;;;;;;13.93;59.53;100028.62;1690937;83;21983;-64
2022/05/05 15:03:55;;;;;;;8.90;7.80;;;;;;;12.73;69.44;100058.58;1742721;80;20977;-60
2022/05/05 15:06:22;;;;;;;8.73;7.75;;;;;;;12.73;69.52;100063.82;1735250;80;21500;-60
2022/05/05 15:08:49;;;;;;;8.33;7.40;;;;;;;12.71;69.63;100065.66;1742288;80;21550;-61
2022/05/05 15:11:18;;;;;;;9.45;8.05;;;;;;;12.61;69.69;100069.69;1755910;80;21156;-61
2022/05/05 15:13:45;;;;;;;11.15;8.65;;;;;;;12.56;69.88;100061.20;1754507;80;21060;-62
2022/05/05 15:16:13;;;;;;;9.35;8.00;;;;;;;12.47;69.95;100064.30;1762378;80;21658;-61
2022/05/05 15:18:40;;;;;;;9.18;7.55;;;;;;;12.39;70.24;100069.06;1760316;80;26535;-61
2022/05/05 15:21:07;;;;;;;7.95;7.08;;;;;;;12.36;70.54;100063.98;1759620;80;21234;-61
2022/05/05 15:23:33;;;;;;;12.07;8.73;;;;;;;12.28;70.80;100059.95;1754069;80;21062;-61
2022/05/05 15:26:01;;;;;;;8.48;7.50;;;;;;;12.12;70.87;100056.38;1718818;82;21343;-61
2022/05/05 15:28:28;;;;;;;;;;;;;;;12.13;71.17;100059.40;1711708;82;21064;-61
2022/05/05 15:30:56;;;;;;;8.40;6.65;;;;;;;12.09;71.40;100057.84;1746241;80;20153;-61
2022/05/05 15:33:23;;;;;;;10.98;7.47;;;;;;;12.08;72.24;100063.53;1696167;82;21151;-62
2022/05/05 15:35:51;;;;;;;9.18;8.23;;;;;;;12.10;71.64;100064.78;1734559;81;21062;-62
2022/05/05 15:38:19;;;;;;;11.57;10.38;;;;;;;12.14;71.74;100050.61;1751578;80;21063;-62
2022/05/05 15:40:46;;;;;;;15.95;10.88;;;;;;;12.13;72.19;100057.22;1732166;80;21014;-61
2022/05/05 15:43:13;;;;;;;11.88;10.68;;;;;;;12.03;72.14;100058.13;1755257;80;21687;-63
2022/05/05 15:45:39;;;;;;;12.35;10.80;;;;;;;11.98;72.51;100062.27;1757006;80;21962;-61
2022/05/05 15:48:07;;;;;;;13.40;11.50;;;;;;;11.94;72.92;100072.97;1757072;80;21038;-61